createdAt,value
2018-03-24T00:01:14.633Z,0.00
2018-03-24T00:02:14.682Z,0.00
2018-03-24T00:04:07.680Z,0.00
2018-03-24T00:05:07.722Z,0.00
2018-03-24T00:07:00.699Z,0.00
2018-03-24T00:08:00.754Z,0.00
2018-03-24T00:09:53.762Z,0.00
2018-03-24T00:10:53.794Z,0.00
2018-03-24T00:12:46.794Z,0.00
2018-03-24T00:13:46.836Z,0.00
2018-03-24T00:15:39.814Z,0.00
2018-03-24T00:16:39.866Z,0.00
2018-03-24T00:18:32.866Z,0.00
2018-03-24T00:19:32.904Z,0.00
2018-03-24T00:21:25.885Z,0.00
2018-03-24T00:22:25.940Z,0.00
2018-03-24T00:24:18.961Z,0.00
2018-03-24T00:25:18.995Z,0.00
2018-03-24T00:27:11.990Z,0.00
2018-03-24T00:28:12.056Z,0.00
2018-03-24T00:30:05.053Z,0.00
2018-03-24T00:31:05.090Z,0.00
2018-03-24T00:32:58.072Z,0.00
2018-03-24T00:33:58.127Z,0.00
2018-03-24T00:35:51.125Z,0.00
2018-03-24T00:36:51.165Z,0.00
2018-03-24T00:38:44.160Z,0.00
2018-03-24T00:39:44.205Z,0.00
2018-03-24T00:41:37.197Z,0.00
2018-03-24T00:42:37.234Z,0.00
2018-03-24T00:44:30.221Z,0.00
2018-03-24T00:45:30.280Z,0.00
2018-03-24T00:47:23.283Z,0.00
2018-03-24T00:48:23.320Z,0.00
2018-03-24T00:50:16.331Z,0.00
2018-03-24T00:51:16.363Z,0.00
2018-03-24T00:53:09.337Z,0.00
2018-03-24T00:54:09.397Z,0.00
2018-03-24T00:56:02.393Z,0.00
2018-03-24T00:57:02.427Z,0.00
2018-03-24T00:58:55.404Z,0.00
2018-03-24T00:59:55.462Z,0.00
2018-03-24T01:01:48.462Z,0.00
2018-03-24T01:02:48.499Z,0.00
2018-03-24T01:04:41.480Z,0.00
2018-03-24T01:05:41.540Z,0.00
2018-03-24T01:07:34.542Z,0.00
2018-03-24T01:08:34.575Z,0.00
2018-03-24T01:10:27.553Z,0.00
2018-03-24T01:11:27.611Z,0.00
2018-03-24T01:13:20.614Z,0.00
2018-03-24T01:14:20.650Z,0.00
2018-03-24T01:16:13.670Z,0.00
2018-03-24T01:17:13.686Z,0.00
2018-03-24T01:19:06.665Z,0.00
2018-03-24T01:20:06.721Z,0.00
2018-03-24T01:21:59.722Z,0.00
2018-03-24T01:22:59.756Z,0.00
2018-03-24T01:24:52.736Z,0.00
2018-03-24T01:25:52.792Z,0.00
2018-03-24T01:27:45.790Z,0.00
2018-03-24T01:28:45.823Z,0.00
2018-03-24T01:30:38.815Z,0.00
2018-03-24T01:31:38.874Z,0.00
2018-03-24T01:33:31.899Z,0.00
2018-03-24T01:34:31.939Z,0.00
2018-03-24T01:36:24.922Z,0.00
2018-03-24T01:37:24.973Z,0.00
2018-03-24T01:39:17.976Z,0.00
2018-03-24T01:40:18.017Z,0.00
2018-03-24T01:42:11.000Z,0.00
2018-03-24T01:43:11.052Z,0.00
2018-03-24T01:45:04.052Z,0.00
2018-03-24T01:46:04.088Z,0.00
2018-03-24T01:47:57.084Z,0.00
2018-03-24T01:48:57.130Z,0.00
2018-03-24T01:50:50.100Z,0.00
2018-03-24T01:51:50.155Z,0.00
2018-03-24T01:53:43.155Z,0.00
2018-03-24T01:54:43.190Z,0.00
2018-03-24T01:56:36.174Z,0.00
2018-03-24T01:57:36.230Z,0.00
2018-03-24T01:59:29.233Z,0.00
2018-03-24T02:00:29.271Z,0.00
2018-03-24T02:02:22.265Z,0.00
2018-03-24T02:03:22.304Z,0.00
2018-03-24T02:05:15.303Z,0.00
2018-03-24T02:06:15.339Z,0.00
2018-03-24T02:08:08.318Z,0.00
2018-03-24T02:09:08.374Z,0.00
2018-03-24T02:11:01.385Z,0.00
2018-03-24T02:12:01.411Z,0.00
2018-03-24T02:13:54.402Z,0.00
2018-03-24T02:14:54.458Z,0.00
2018-03-24T02:16:47.457Z,0.00
2018-03-24T02:17:47.492Z,0.00
2018-03-24T02:19:40.487Z,0.00
2018-03-24T02:20:40.525Z,0.00
2018-03-24T02:22:33.507Z,0.00
2018-03-24T02:23:33.559Z,0.00
2018-03-24T02:25:26.560Z,0.00
2018-03-24T02:26:26.595Z,0.00
2018-03-24T02:28:19.577Z,0.00
2018-03-24T02:29:19.636Z,0.00
2018-03-24T02:31:12.634Z,0.00
2018-03-24T02:32:12.666Z,0.00
2018-03-24T02:34:05.674Z,0.00
2018-03-24T02:35:05.731Z,0.00
2018-03-24T02:36:58.727Z,0.00
2018-03-24T02:37:58.763Z,0.00
2018-03-24T02:39:51.762Z,0.00
2018-03-24T02:40:51.795Z,0.00
2018-03-24T02:42:44.780Z,0.00
2018-03-24T02:43:44.832Z,0.00
2018-03-24T02:45:37.831Z,0.00
2018-03-24T02:46:37.867Z,0.00
2018-03-24T02:48:30.847Z,0.00
2018-03-24T02:49:30.899Z,0.00
2018-03-24T02:51:23.910Z,0.00
2018-03-24T02:52:23.935Z,0.00
2018-03-24T02:54:16.913Z,0.00
2018-03-24T02:55:16.972Z,0.00
2018-03-24T02:57:09.970Z,0.00
2018-03-24T02:58:10.007Z,0.00
2018-03-24T03:00:02.991Z,0.00
2018-03-24T03:01:03.041Z,0.00
2018-03-24T03:02:56.047Z,0.00
2018-03-24T03:03:56.084Z,0.00
2018-03-24T03:05:49.061Z,0.00
2018-03-24T03:06:49.115Z,0.00
2018-03-24T03:08:42.124Z,0.00
2018-03-24T03:09:42.153Z,0.00
2018-03-24T03:11:35.157Z,0.00
2018-03-24T03:12:35.194Z,0.00
2018-03-24T03:14:28.171Z,0.00
2018-03-24T03:15:28.226Z,0.00
2018-03-24T03:17:21.224Z,0.00
2018-03-24T03:18:21.261Z,0.00
2018-03-24T03:20:14.755Z,0.00
2018-03-24T03:21:14.804Z,0.00
2018-03-24T03:23:07.807Z,0.00
2018-03-24T03:24:07.837Z,0.00
2018-03-24T03:26:00.824Z,0.00
2018-03-24T03:27:00.874Z,0.00
2018-03-24T03:28:53.873Z,0.00
2018-03-24T03:29:53.909Z,0.00
2018-03-24T03:31:46.892Z,0.00
2018-03-24T03:32:46.942Z,0.00
2018-03-24T03:34:39.943Z,0.00
2018-03-24T03:35:39.978Z,0.00
2018-03-24T03:37:32.978Z,0.00
2018-03-24T03:38:33.013Z,0.00
2018-03-24T03:40:25.992Z,0.00
2018-03-24T03:41:26.049Z,0.00
2018-03-24T03:43:19.051Z,0.00
2018-03-24T03:44:19.086Z,0.00
2018-03-24T03:46:12.065Z,0.00
2018-03-24T03:47:12.120Z,0.00
2018-03-24T03:49:05.119Z,0.00
2018-03-24T03:50:05.157Z,0.00
2018-03-24T03:51:58.139Z,0.00
2018-03-24T03:52:58.187Z,0.00
2018-03-24T03:54:51.197Z,0.00
2018-03-24T03:55:51.221Z,0.00
2018-03-24T03:57:44.235Z,0.00
2018-03-24T03:58:44.261Z,0.00
2018-03-24T04:00:37.240Z,0.00
2018-03-24T04:01:37.294Z,0.00
2018-03-24T04:03:30.291Z,0.00
2018-03-24T04:04:30.340Z,0.00
2018-03-24T04:06:23.310Z,0.00
2018-03-24T04:07:23.363Z,0.00
2018-03-24T04:09:16.365Z,0.00
2018-03-24T04:10:16.396Z,0.00
2018-03-24T04:12:09.372Z,0.00
2018-03-24T04:13:09.436Z,0.00
2018-03-24T04:15:02.422Z,0.00
2018-03-24T04:16:02.459Z,0.00
2018-03-24T04:17:55.441Z,0.00
2018-03-24T04:18:55.492Z,0.00
2018-03-24T04:20:49.016Z,0.00
2018-03-24T04:21:49.045Z,0.00
2018-03-24T04:23:42.016Z,0.00
2018-03-24T04:24:42.072Z,0.00
2018-03-24T04:26:35.081Z,0.00
2018-03-24T04:27:35.110Z,0.00
2018-03-24T04:29:28.107Z,0.00
2018-03-24T04:30:28.142Z,0.00
2018-03-24T04:32:21.118Z,0.00
2018-03-24T04:33:21.173Z,0.00
2018-03-24T04:35:14.177Z,0.00
2018-03-24T04:36:14.212Z,0.00
2018-03-24T04:38:07.191Z,0.00
2018-03-24T04:39:07.247Z,0.00
2018-03-24T04:41:00.246Z,0.00
2018-03-24T04:42:00.281Z,0.00
2018-03-24T04:43:53.260Z,0.00
2018-03-24T04:44:53.315Z,0.00
2018-03-24T04:46:46.321Z,0.00
2018-03-24T04:47:46.357Z,0.00
2018-03-24T04:49:39.338Z,0.00
2018-03-24T04:50:39.395Z,0.00
2018-03-24T04:52:32.400Z,0.00
2018-03-24T04:53:32.435Z,4.00
2018-03-24T04:55:25.411Z,0.00
2018-03-24T04:56:25.467Z,4.00
2018-03-24T04:58:18.466Z,4.00
2018-03-24T04:59:18.500Z,4.00
2018-03-24T05:01:11.496Z,4.00
2018-03-24T05:02:11.532Z,8.00
2018-03-24T05:04:04.513Z,12.00
2018-03-24T05:05:04.603Z,12.00
2018-03-24T05:06:57.561Z,20.00
2018-03-24T05:07:57.598Z,20.00
2018-03-24T05:09:50.582Z,32.00
2018-03-24T05:10:50.635Z,36.00
2018-03-24T05:12:43.636Z,48.00
2018-03-24T05:13:43.671Z,56.00
2018-03-24T05:15:36.661Z,72.00
2018-03-24T05:16:36.707Z,80.00
2018-03-24T05:18:29.705Z,100.00
2018-03-24T05:19:29.796Z,116.00
2018-03-24T05:21:22.715Z,144.00
2018-03-24T05:22:22.770Z,164.00
2018-03-24T05:24:15.772Z,200.00
2018-03-24T05:25:15.806Z,216.00
2018-03-24T05:27:08.788Z,256.00
2018-03-24T05:28:08.836Z,276.00
2018-03-24T05:30:01.832Z,320.00
2018-03-24T05:31:01.863Z,352.00
2018-03-24T05:32:54.886Z,408.00
2018-03-24T05:33:54.902Z,440.00
2018-03-24T05:35:47.880Z,508.00
2018-03-24T05:36:47.934Z,544.00
2018-03-24T05:38:40.929Z,616.00
2018-03-24T05:39:40.962Z,652.00
2018-03-24T05:41:33.996Z,732.00
2018-03-24T05:42:34.018Z,776.00
2018-03-24T05:44:27.098Z,860.00
2018-03-24T05:45:27.073Z,904.00
2018-03-24T05:47:20.011Z,972.00
2018-03-24T05:48:20.064Z,1000.00
2018-03-24T05:50:13.059Z,1072.00
2018-03-24T05:51:13.097Z,1144.00
2018-03-24T05:53:06.076Z,1288.00
2018-03-24T05:54:06.124Z,1352.00
2018-03-24T05:55:59.122Z,1444.00
2018-03-24T05:56:59.155Z,1484.00
2018-03-24T05:58:52.133Z,1604.00
2018-03-24T05:59:52.196Z,1676.00
2018-03-24T06:01:45.192Z,1784.00
2018-03-24T06:02:45.221Z,1836.00
2018-03-24T06:04:38.202Z,1968.00
2018-03-24T06:05:38.251Z,2028.00
2018-03-24T06:07:31.243Z,2116.00
2018-03-24T06:08:31.280Z,2176.00
2018-03-24T06:10:24.280Z,2316.00
2018-03-24T06:11:24.316Z,2380.00
2018-03-24T06:13:17.285Z,2492.00
2018-03-24T06:14:17.340Z,2584.00
2018-03-24T06:16:10.336Z,2708.00
2018-03-24T06:17:10.368Z,2744.00
2018-03-24T06:19:03.346Z,3040.00
2018-03-24T06:20:03.451Z,3176.00
2018-03-24T06:21:56.392Z,3352.00
2018-03-24T06:22:56.429Z,3400.00
2018-03-24T06:24:49.415Z,3500.00
2018-03-24T06:25:49.472Z,3568.00
2018-03-24T06:27:42.465Z,3408.00
2018-03-24T06:28:42.500Z,3620.00
2018-03-24T06:30:35.480Z,3280.00
2018-03-24T06:31:35.546Z,3396.00
2018-03-24T06:33:28.525Z,3828.00
2018-03-24T06:34:28.560Z,4220.00
2018-03-24T06:36:21.542Z,4940.00
2018-03-24T06:37:21.594Z,5068.00
2018-03-24T06:39:14.611Z,5256.00
2018-03-24T06:40:14.623Z,5376.00
2018-03-24T06:42:07.621Z,5648.00
2018-03-24T06:43:07.655Z,5772.00
2018-03-24T06:45:00.632Z,6088.00
2018-03-24T06:46:00.687Z,6360.00
2018-03-24T06:47:53.687Z,6308.00
2018-03-24T06:48:53.720Z,6424.00
2018-03-24T06:50:46.705Z,5608.00
2018-03-24T06:51:46.767Z,7036.00
2018-03-24T06:53:39.773Z,6744.00
2018-03-24T06:54:39.817Z,7980.00
2018-03-24T06:56:32.785Z,10384.00
2018-03-24T06:57:32.841Z,11204.00
2018-03-24T06:59:25.847Z,12104.00
2018-03-24T07:00:25.879Z,12436.00
2018-03-24T07:02:18.864Z,12108.00
2018-03-24T07:03:18.914Z,11088.00
2018-03-24T07:05:11.914Z,9424.00
2018-03-24T07:06:11.952Z,9580.00
2018-03-24T07:08:04.932Z,10788.00
2018-03-24T07:09:04.988Z,10400.00
2018-03-24T07:10:57.993Z,10812.00
2018-03-24T07:11:58.025Z,9896.00
2018-03-24T07:13:51.006Z,18112.00
2018-03-24T07:14:51.062Z,19456.00
2018-03-24T07:16:44.061Z,25120.00
2018-03-24T07:17:44.099Z,28224.00
2018-03-24T07:19:37.102Z,33472.00
2018-03-24T07:20:37.142Z,35872.00
2018-03-24T07:22:30.123Z,37376.00
2018-03-24T07:23:30.186Z,35744.00
2018-03-24T07:25:23.187Z,32224.00
2018-03-24T07:26:23.225Z,30944.00
2018-03-24T07:28:16.230Z,28160.00
2018-03-24T07:29:16.272Z,26208.00
2018-03-24T07:31:09.285Z,23520.00
2018-03-24T07:32:09.327Z,22944.00
2018-03-24T07:34:02.321Z,22720.00
2018-03-24T07:35:02.384Z,23008.00
2018-03-24T07:36:55.410Z,23072.00
2018-03-24T07:37:55.463Z,21120.00
2018-03-24T07:39:48.440Z,23136.00
2018-03-24T07:40:48.494Z,23200.00
2018-03-24T07:42:41.512Z,23392.00
2018-03-24T07:43:41.555Z,23744.00
2018-03-24T07:45:34.760Z,24096.00
2018-03-24T07:46:34.617Z,24160.00
2018-03-24T07:48:27.629Z,24512.00
2018-03-24T07:49:27.685Z,24160.00
2018-03-24T07:51:20.805Z,24128.00
2018-03-24T07:52:20.730Z,24416.00
2018-03-24T07:54:13.724Z,24960.00
2018-03-24T07:55:13.786Z,24800.00
2018-03-24T07:57:06.803Z,24544.00
2018-03-24T07:58:06.923Z,21920.00
2018-03-24T07:59:59.955Z,23168.00
2018-03-24T08:00:59.901Z,20736.00
2018-03-24T08:02:52.917Z,13860.00
2018-03-24T08:03:53.025Z,13460.00
2018-03-24T08:05:45.957Z,13484.00
2018-03-24T08:06:46.022Z,17472.00
2018-03-24T08:08:39.034Z,14576.00
2018-03-24T08:09:39.085Z,16544.00
2018-03-24T08:11:32.100Z,14996.00
2018-03-24T08:12:32.130Z,18848.00
2018-03-24T08:14:25.135Z,24384.00
2018-03-24T08:15:25.234Z,24800.00
2018-03-24T08:17:18.200Z,25632.00
2018-03-24T08:18:18.242Z,24896.00
2018-03-24T08:20:11.244Z,38592.00
2018-03-24T08:21:11.304Z,41632.00
2018-03-24T08:23:04.314Z,32704.00
2018-03-24T08:24:04.358Z,41120.00
2018-03-24T08:25:57.356Z,34432.00
2018-03-24T08:26:57.422Z,45568.00
2018-03-24T08:28:50.439Z,42400.00
2018-03-24T08:29:50.524Z,33344.00
2018-03-24T08:31:43.486Z,42144.00
2018-03-24T08:32:43.609Z,31328.00
2018-03-24T08:34:36.547Z,38720.00
2018-03-24T08:35:36.591Z,38048.00
2018-03-24T08:37:29.597Z,44000.00
2018-03-24T08:38:29.662Z,25504.00
2018-03-24T08:40:22.670Z,26688.00
2018-03-24T08:41:22.744Z,29120.00
2018-03-24T08:43:15.733Z,28640.00
2018-03-24T08:44:15.772Z,36224.00
2018-03-24T08:46:08.764Z,44096.00
2018-03-24T08:47:08.830Z,44480.00
2018-03-24T08:49:01.836Z,43168.00
2018-03-24T08:50:01.883Z,44576.00
2018-03-24T08:51:54.875Z,44704.00
2018-03-24T08:52:55.213Z,44672.00
2018-03-24T08:54:47.947Z,40288.00
2018-03-24T08:55:47.992Z,44384.00
2018-03-24T08:57:40.991Z,43776.00
2018-03-24T08:58:41.055Z,44160.00
2018-03-24T09:00:34.074Z,47840.00
2018-03-24T09:01:34.114Z,49568.00
2018-03-24T09:03:27.123Z,49024.00
2018-03-24T09:04:27.173Z,48928.00
2018-03-24T09:06:20.188Z,38848.00
2018-03-24T09:07:20.240Z,39104.00
2018-03-24T09:09:13.246Z,12012.00
2018-03-24T09:10:13.291Z,10448.00
2018-03-24T09:12:06.294Z,9764.00
2018-03-24T09:13:06.351Z,9316.00
2018-03-24T09:14:59.370Z,8820.00
2018-03-24T09:15:59.408Z,8828.00
2018-03-24T09:17:52.402Z,8872.00
2018-03-24T09:18:52.471Z,8996.00
2018-03-24T09:20:45.477Z,9008.00
2018-03-24T09:21:45.521Z,8916.00
2018-03-24T09:23:38.512Z,8784.00
2018-03-24T09:24:38.572Z,8640.00
2018-03-24T09:26:31.640Z,8572.00
2018-03-24T09:27:31.623Z,8600.00
2018-03-24T09:29:24.634Z,8536.00
2018-03-24T09:30:24.673Z,8536.00
2018-03-24T09:32:17.672Z,8264.00
2018-03-24T09:33:17.731Z,8168.00
2018-03-24T09:35:10.745Z,8228.00
2018-03-24T09:36:10.789Z,8280.00
2018-03-24T09:38:03.774Z,8216.00
2018-03-24T09:39:03.834Z,8240.00
2018-03-24T09:40:56.853Z,8132.00
2018-03-24T09:41:56.951Z,8084.00
2018-03-24T09:43:49.881Z,8176.00
2018-03-24T09:44:49.936Z,8132.00
2018-03-24T09:46:42.942Z,8104.00
2018-03-24T09:47:42.983Z,8184.00
2018-03-24T09:49:35.987Z,8152.00
2018-03-24T09:50:36.029Z,8064.00
2018-03-24T09:52:29.068Z,7912.00
2018-03-24T09:53:29.131Z,7856.00
2018-03-24T09:55:22.143Z,7836.00
2018-03-24T09:56:22.189Z,7916.00
2018-03-24T09:58:15.180Z,7668.00
2018-03-24T09:59:15.243Z,7632.00
2018-03-24T10:01:08.250Z,7588.00
2018-03-24T10:02:08.290Z,7620.00
2018-03-24T10:04:01.277Z,7444.00
2018-03-24T10:05:01.337Z,7240.00
2018-03-24T10:06:54.341Z,6756.00
2018-03-24T10:07:54.383Z,6584.00
2018-03-24T10:09:47.386Z,6548.00
2018-03-24T10:10:47.427Z,6532.00
2018-03-24T10:12:40.414Z,6536.00
2018-03-24T10:13:40.479Z,6544.00
2018-03-24T10:15:33.487Z,6584.00
2018-03-24T10:16:33.521Z,6640.00
2018-03-24T10:18:27.011Z,6808.00
2018-03-24T10:19:27.072Z,6888.00
2018-03-24T10:21:20.081Z,7024.00
2018-03-24T10:22:20.117Z,7116.00
2018-03-24T10:24:13.122Z,7264.00
2018-03-24T10:25:13.170Z,7324.00
2018-03-24T10:27:06.179Z,7464.00
2018-03-24T10:28:06.221Z,7640.00
2018-03-24T10:29:59.226Z,7972.00
2018-03-24T10:30:59.267Z,8172.00
2018-03-24T10:32:52.255Z,8276.00
2018-03-24T10:33:52.311Z,8284.00
2018-03-24T10:35:45.326Z,8356.00
2018-03-24T10:36:45.355Z,8436.00
2018-03-24T10:38:38.350Z,8556.00
2018-03-24T10:39:38.403Z,8628.00
2018-03-24T10:41:31.453Z,8744.00
2018-03-24T10:42:31.453Z,8768.00
2018-03-24T10:44:24.436Z,8784.00
2018-03-24T10:45:24.491Z,8824.00
2018-03-24T10:47:17.506Z,8904.00
2018-03-24T10:48:17.547Z,8864.00
2018-03-24T10:50:10.549Z,8620.00
2018-03-24T10:51:10.591Z,8532.00
2018-03-24T10:53:03.575Z,8472.00
2018-03-24T10:54:03.634Z,8384.00
2018-03-24T10:55:56.637Z,8220.00
2018-03-24T10:56:56.678Z,8152.00
2018-03-24T10:58:49.711Z,8064.00
2018-03-24T10:59:49.726Z,8084.00
2018-03-24T11:01:42.731Z,7960.00
2018-03-24T11:02:42.770Z,7820.00
2018-03-24T11:04:35.760Z,7712.00
2018-03-24T11:05:35.817Z,7716.00
2018-03-24T11:07:28.821Z,7836.00
2018-03-24T11:08:28.860Z,7864.00
2018-03-24T11:10:21.868Z,7488.00
2018-03-24T11:11:21.907Z,7624.00
2018-03-24T11:13:14.897Z,7520.00
2018-03-24T11:14:14.952Z,7424.00
2018-03-24T11:16:07.960Z,7348.00
2018-03-24T11:17:07.997Z,7552.00
2018-03-24T11:19:00.996Z,8060.00
2018-03-24T11:20:01.053Z,8172.00
2018-03-24T11:21:54.064Z,8304.00
2018-03-24T11:22:54.106Z,8128.00
2018-03-24T11:24:47.094Z,7872.00
2018-03-24T11:25:47.152Z,7624.00
2018-03-24T11:27:40.164Z,7520.00
2018-03-24T11:28:40.205Z,7440.00
2018-03-24T11:30:33.212Z,7572.00
2018-03-24T11:31:33.252Z,7832.00
2018-03-24T11:33:26.243Z,8132.00
2018-03-24T11:34:26.305Z,8764.00
2018-03-24T11:36:19.331Z,9372.00
2018-03-24T11:37:19.372Z,9508.00
2018-03-24T11:39:12.357Z,8420.00
2018-03-24T11:40:12.417Z,8112.00
2018-03-24T11:42:05.425Z,8132.00
2018-03-24T11:43:05.478Z,8568.00
2018-03-24T11:44:58.509Z,8824.00
2018-03-24T11:45:58.568Z,9144.00
2018-03-24T11:47:51.586Z,9656.00
2018-03-24T11:48:51.623Z,10224.00
2018-03-24T11:50:44.632Z,10764.00
2018-03-24T11:51:44.673Z,11284.00
2018-03-24T11:53:37.659Z,12212.00
2018-03-24T11:54:37.719Z,12368.00
2018-03-24T11:56:30.725Z,12456.00
2018-03-24T11:57:30.775Z,12476.00
2018-03-24T11:59:23.764Z,12528.00
2018-03-24T12:00:23.816Z,12480.00
2018-03-24T12:02:16.822Z,12200.00
2018-03-24T12:03:16.865Z,12108.00
2018-03-24T12:05:09.853Z,11916.00
2018-03-24T12:06:09.911Z,11964.00
2018-03-24T12:08:02.918Z,12296.00
2018-03-24T12:09:02.987Z,12432.00
2018-03-24T12:10:55.966Z,12120.00
2018-03-24T12:11:56.013Z,12100.00
2018-03-24T12:13:48.996Z,12152.00
2018-03-24T12:14:49.058Z,12196.00
2018-03-24T12:16:42.066Z,12180.00
2018-03-24T12:17:42.108Z,12148.00
2018-03-24T12:19:35.098Z,11856.00
2018-03-24T12:20:35.157Z,11648.00
2018-03-24T12:22:28.179Z,11332.00
2018-03-24T12:23:28.205Z,11264.00
2018-03-24T12:25:21.200Z,11312.00
2018-03-24T12:26:21.260Z,11504.00
2018-03-24T12:28:14.266Z,11836.00
2018-03-24T12:29:14.307Z,11876.00
2018-03-24T12:31:07.316Z,11808.00
2018-03-24T12:32:07.357Z,11704.00
2018-03-24T12:34:00.343Z,11636.00
2018-03-24T12:35:00.404Z,11696.00
2018-03-24T12:36:53.414Z,11912.00
2018-03-24T12:37:53.455Z,12096.00
2018-03-24T12:39:46.959Z,12848.00
2018-03-24T12:40:47.014Z,13108.00
2018-03-24T12:42:40.046Z,13272.00
2018-03-24T12:43:40.067Z,13112.00
2018-03-24T12:45:33.063Z,12392.00
2018-03-24T12:46:33.130Z,11880.00
2018-03-24T12:48:26.134Z,10872.00
2018-03-24T12:49:26.179Z,10484.00
2018-03-24T12:51:19.195Z,10088.00
2018-03-24T12:52:19.228Z,9924.00
2018-03-24T12:54:12.218Z,9856.00
2018-03-24T12:55:12.279Z,9832.00
2018-03-24T12:57:05.288Z,9992.00
2018-03-24T12:58:05.327Z,10160.00
2018-03-24T12:59:58.317Z,10180.00
2018-03-24T13:00:58.379Z,9908.00
2018-03-24T13:02:51.390Z,9440.00
2018-03-24T13:03:51.431Z,9208.00
2018-03-24T13:05:44.420Z,9616.00
2018-03-24T13:06:44.478Z,9696.00
2018-03-24T13:08:37.489Z,9884.00
2018-03-24T13:09:37.531Z,9532.00
2018-03-24T13:11:30.543Z,9200.00
2018-03-24T13:12:30.584Z,9068.00
2018-03-24T13:14:23.572Z,8844.00
2018-03-24T13:15:23.635Z,8692.00
2018-03-24T13:17:16.648Z,8312.00
2018-03-24T13:18:16.684Z,8112.00
2018-03-24T13:20:09.680Z,7892.00
2018-03-24T13:21:09.741Z,7744.00
2018-03-24T13:23:02.749Z,7632.00
2018-03-24T13:24:02.790Z,7688.00
2018-03-24T13:25:55.781Z,7892.00
2018-03-24T13:26:55.837Z,7980.00
2018-03-24T13:28:48.848Z,7936.00
2018-03-24T13:29:48.890Z,7836.00
2018-03-24T13:31:41.898Z,8120.00
2018-03-24T13:32:41.939Z,8536.00
2018-03-24T13:34:34.942Z,9156.00
2018-03-24T13:35:35.005Z,9636.00
2018-03-24T13:37:28.019Z,10148.00
2018-03-24T13:38:28.060Z,10164.00
2018-03-24T13:40:21.059Z,10324.00
2018-03-24T13:41:21.116Z,10424.00
2018-03-24T13:43:14.114Z,10388.00
2018-03-24T13:44:14.156Z,10528.00
2018-03-24T13:46:07.149Z,10556.00
2018-03-24T13:47:07.204Z,10540.00
2018-03-24T13:49:00.213Z,10292.00
2018-03-24T13:50:00.254Z,10212.00
2018-03-24T13:51:53.262Z,9612.00
2018-03-24T13:52:53.301Z,9356.00
2018-03-24T13:54:46.293Z,8844.00
2018-03-24T13:55:46.350Z,8544.00
2018-03-24T13:57:39.360Z,8092.00
2018-03-24T13:58:39.409Z,8032.00
2018-03-24T14:00:32.409Z,8040.00
2018-03-24T14:01:32.464Z,8040.00
2018-03-24T14:03:25.478Z,8080.00
2018-03-24T14:04:25.520Z,8108.00
2018-03-24T14:06:18.512Z,8172.00
2018-03-24T14:07:18.571Z,8180.00
2018-03-24T14:09:11.579Z,8012.00
2018-03-24T14:10:11.621Z,8000.00
2018-03-24T14:12:04.634Z,7928.00
2018-03-24T14:13:04.670Z,7836.00
2018-03-24T14:14:57.659Z,7512.00
2018-03-24T14:15:57.757Z,7336.00
2018-03-24T14:17:50.733Z,7260.00
2018-03-24T14:18:50.775Z,7100.00
2018-03-24T14:20:43.766Z,6788.00
2018-03-24T14:21:43.824Z,6872.00
2018-03-24T14:23:36.834Z,6440.00
2018-03-24T14:24:36.965Z,6376.00
2018-03-24T14:26:29.867Z,6528.00
2018-03-24T14:27:29.926Z,6636.00
2018-03-24T14:29:22.933Z,6720.00
2018-03-24T14:30:22.978Z,6740.00
2018-03-24T14:32:15.998Z,6868.00
2018-03-24T14:33:16.020Z,6740.00
2018-03-24T14:35:09.012Z,6780.00
2018-03-24T14:36:09.070Z,6892.00
2018-03-24T14:38:02.114Z,7000.00
2018-03-24T14:39:02.130Z,7092.00
2018-03-24T14:40:55.162Z,7172.00
2018-03-24T14:41:55.185Z,7236.00
2018-03-24T14:43:48.211Z,7468.00
2018-03-24T14:44:48.242Z,7564.00
2018-03-24T14:46:41.258Z,7684.00
2018-03-24T14:47:41.289Z,7632.00
2018-03-24T14:49:34.868Z,7792.00
2018-03-24T14:50:34.852Z,7868.00
2018-03-24T14:52:27.859Z,7748.00
2018-03-24T14:53:27.897Z,7612.00
2018-03-24T14:55:20.899Z,7200.00
2018-03-24T14:56:20.954Z,7036.00
2018-03-24T14:58:13.960Z,6736.00
2018-03-24T14:59:14.002Z,6700.00
2018-03-24T15:01:06.992Z,6680.00
2018-03-24T15:02:07.044Z,6628.00
2018-03-24T15:04:00.083Z,6560.00
2018-03-24T15:05:00.091Z,6508.00
2018-03-24T15:06:53.085Z,6440.00
2018-03-24T15:07:53.147Z,6400.00
2018-03-24T15:09:46.179Z,6272.00
2018-03-24T15:10:46.207Z,6252.00
2018-03-24T15:12:39.222Z,6176.00
2018-03-24T15:13:39.266Z,6152.00
2018-03-24T15:15:32.279Z,6108.00
2018-03-24T15:16:32.361Z,6088.00
2018-03-24T15:18:25.346Z,6024.00
2018-03-24T15:19:25.388Z,5968.00
2018-03-24T15:21:18.379Z,5816.00
2018-03-24T15:22:18.445Z,5780.00
2018-03-24T15:24:11.453Z,5656.00
2018-03-24T15:25:11.494Z,5588.00
2018-03-24T15:27:04.485Z,5456.00
2018-03-24T15:28:04.568Z,5420.00
2018-03-24T15:29:57.549Z,5324.00
2018-03-24T15:30:57.591Z,5220.00
2018-03-24T15:32:50.592Z,4968.00
2018-03-24T15:33:50.642Z,4880.00
2018-03-24T15:35:43.625Z,4736.00
2018-03-24T15:36:43.686Z,4624.00
2018-03-24T15:38:36.706Z,4464.00
2018-03-24T15:39:36.732Z,4384.00
2018-03-24T15:41:29.716Z,4196.00
2018-03-24T15:42:29.777Z,4080.00
2018-03-24T15:44:22.782Z,3872.00
2018-03-24T15:45:22.831Z,3748.00
2018-03-24T15:47:16.317Z,3556.00
2018-03-24T15:48:16.376Z,3472.00
2018-03-24T15:50:09.382Z,3288.00
2018-03-24T15:51:09.641Z,3216.00
2018-03-24T15:53:02.433Z,3076.00
2018-03-24T15:54:02.474Z,2992.00
2018-03-24T15:55:55.457Z,2844.00
2018-03-24T15:56:55.516Z,2784.00
2018-03-24T15:58:48.518Z,2660.00
2018-03-24T15:59:48.560Z,2572.00
2018-03-24T16:01:41.546Z,2428.00
2018-03-24T16:02:41.606Z,2360.00
2018-03-24T16:04:34.612Z,2228.00
2018-03-24T16:05:34.651Z,2160.00
2018-03-24T16:07:27.642Z,2040.00
2018-03-24T16:08:27.700Z,2000.00
2018-03-24T16:10:20.712Z,1940.00
2018-03-24T16:11:20.753Z,1888.00
2018-03-24T16:13:13.760Z,1784.00
2018-03-24T16:14:13.806Z,1736.00
2018-03-24T16:16:06.791Z,1684.00
2018-03-24T16:17:06.851Z,1672.00
2018-03-24T16:18:59.872Z,1708.00
2018-03-24T16:19:59.911Z,1748.00
2018-03-24T16:21:52.930Z,1788.00
2018-03-24T16:22:52.992Z,1796.00
2018-03-24T16:24:46.001Z,1772.00
2018-03-24T16:25:46.043Z,1740.00
2018-03-24T16:27:39.050Z,1676.00
2018-03-24T16:28:39.129Z,1628.00
2018-03-24T16:30:32.098Z,1520.00
2018-03-24T16:31:32.140Z,1496.00
2018-03-24T16:33:25.157Z,1540.00
2018-03-24T16:34:25.216Z,1524.00
2018-03-24T16:36:18.181Z,1444.00
2018-03-24T16:37:18.238Z,1444.00
2018-03-24T16:39:11.257Z,1428.00
2018-03-24T16:40:11.285Z,1388.00
2018-03-24T16:42:04.272Z,1324.00
2018-03-24T16:43:04.331Z,1316.00
2018-03-24T16:44:57.339Z,1276.00
2018-03-24T16:45:57.380Z,1256.00
2018-03-24T16:47:50.364Z,1252.00
2018-03-24T16:48:50.420Z,1224.00
2018-03-24T16:50:43.426Z,1180.00
2018-03-24T16:51:43.467Z,1156.00
2018-03-24T16:53:36.474Z,1120.00
2018-03-24T16:54:36.513Z,1132.00
2018-03-24T16:56:29.529Z,1112.00
2018-03-24T16:57:29.567Z,1072.00
2018-03-24T16:59:22.571Z,984.00
2018-03-24T17:00:22.610Z,912.00
2018-03-24T17:02:15.601Z,788.00
2018-03-24T17:03:15.661Z,744.00
2018-03-24T17:05:08.667Z,668.00
2018-03-24T17:06:08.708Z,636.00
2018-03-24T17:08:01.701Z,620.00
2018-03-24T17:09:01.759Z,644.00
2018-03-24T17:10:54.763Z,684.00
2018-03-24T17:11:54.803Z,684.00
2018-03-24T17:13:47.807Z,664.00
2018-03-24T17:14:47.847Z,640.00
2018-03-24T17:16:40.861Z,600.00
2018-03-24T17:17:40.896Z,564.00
2018-03-24T17:19:33.898Z,496.00
2018-03-24T17:20:33.938Z,476.00
2018-03-24T17:22:26.925Z,480.00
2018-03-24T17:23:26.982Z,480.00
2018-03-24T17:25:19.986Z,452.00
2018-03-24T17:26:20.025Z,428.00
2018-03-24T17:28:13.016Z,380.00
2018-03-24T17:29:13.077Z,356.00
2018-03-24T17:31:06.083Z,336.00
2018-03-24T17:32:06.123Z,316.00
2018-03-24T17:33:59.126Z,292.00
2018-03-24T17:34:59.166Z,280.00
2018-03-24T17:36:52.149Z,256.00
2018-03-24T17:37:52.211Z,240.00
2018-03-24T17:39:45.213Z,220.00
2018-03-24T17:40:45.250Z,212.00
2018-03-24T17:42:38.253Z,196.00
2018-03-24T17:43:38.316Z,188.00
2018-03-24T17:45:31.325Z,168.00
2018-03-24T17:46:31.360Z,156.00
2018-03-24T17:48:24.346Z,128.00
2018-03-24T17:49:24.408Z,116.00
2018-03-24T17:51:17.411Z,96.00